sensor_id;sensor_type;location;lat;lon;timestamp;P1;durP1;ratioP1;P2;durP2;ratioP2
4377;SDS011;2203;53.686;9.994;2022-08-04T00:00:12;15.00;;;5.10;;
4377;SDS011;2203;53.686;9.994;2022-08-04T00:02:42;14.50;;;4.50;;
4377;SDS011;2203;53.686;9.994;2022-08-04T00:05:29;15.17;;;5.20;;
4377;SDS011;2203;53.686;9.994;2022-08-04T00:11:01;10.73;;;4.77;;
4377;SDS011;2203;53.686;9.994;2022-08-04T00:13:27;15.83;;;5.57;;
4377;SDS011;2203;53.686;9.994;2022-08-04T00:15:56;11.87;;;4.73;;
4377;SDS011;2203;53.686;9.994;2022-08-04T00:18:25;18.37;;;5.63;;
4377;SDS011;2203;53.686;9.994;2022-08-04T00:20:54;11.60;;;5.80;;
4377;SDS011;2203;53.686;9.994;2022-08-04T00:23:23;14.73;;;5.70;;
4377;SDS011;2203;53.686;9.994;2022-08-04T00:25:50;13.67;;;5.40;;
4377;SDS011;2203;53.686;9.994;2022-08-04T00:28:17;13.83;;;5.60;;
4377;SDS011;2203;53.686;9.994;2022-08-04T00:30:43;22.07;;;5.83;;
4377;SDS011;2203;53.686;9.994;2022-08-04T00:33:09;27.93;;;6.20;;
4377;SDS011;2203;53.686;9.994;2022-08-04T00:35:34;19.97;;;7.00;;
4377;SDS011;2203;53.686;9.994;2022-08-04T00:38:00;22.70;;;5.97;;
4377;SDS011;2203;53.686;9.994;2022-08-04T00:53:49;14.50;;;5.60;;
4377;SDS011;2203;53.686;9.994;2022-08-04T00:59:03;21.23;;;6.17;;
4377;SDS011;2203;53.686;9.994;2022-08-04T01:01:43;14.70;;;5.20;;
4377;SDS011;2203;53.686;9.994;2022-08-04T01:18:24;12.30;;;5.30;;
4377;SDS011;2203;53.686;9.994;2022-08-04T01:29:15;11.80;;;5.60;;
4377;SDS011;2203;53.686;9.994;2022-08-04T01:31:43;19.43;;;5.23;;
4377;SDS011;2203;53.686;9.994;2022-08-04T01:34:15;14.53;;;5.37;;
4377;SDS011;2203;53.686;9.994;2022-08-04T01:36:58;15.80;;;5.00;;
4377;SDS011;2203;53.686;9.994;2022-08-04T01:39:30;11.40;;;4.50;;
4377;SDS011;2203;53.686;9.994;2022-08-04T01:42:04;17.97;;;4.87;;
4377;SDS011;2203;53.686;9.994;2022-08-04T01:44:30;13.50;;;5.00;;
4377;SDS011;2203;53.686;9.994;2022-08-04T01:46:58;12.90;;;4.70;;
4377;SDS011;2203;53.686;9.994;2022-08-04T01:49:27;19.77;;;4.90;;
4377;SDS011;2203;53.686;9.994;2022-08-04T01:51:53;15.53;;;4.90;;
4377;SDS011;2203;53.686;9.994;2022-08-04T01:54:20;8.30;;;4.67;;
4377;SDS011;2203;53.686;9.994;2022-08-04T01:56:46;13.30;;;5.40;;
4377;SDS011;2203;53.686;9.994;2022-08-04T01:59:14;11.93;;;4.30;;
4377;SDS011;2203;53.686;9.994;2022-08-04T02:01:39;11.03;;;4.70;;
4377;SDS011;2203;53.686;9.994;2022-08-04T02:04:05;12.43;;;4.80;;
4377;SDS011;2203;53.686;9.994;2022-08-04T02:06:43;13.63;;;4.57;;
4377;SDS011;2203;53.686;9.994;2022-08-04T02:11:44;10.03;;;3.70;;
4377;SDS011;2203;53.686;9.994;2022-08-04T02:14:18;18.43;;;5.00;;
4377;SDS011;2203;53.686;9.994;2022-08-04T02:17:49;14.07;;;4.67;;
4377;SDS011;2203;53.686;9.994;2022-08-04T02:20:03;13.50;;;4.80;;
4377;SDS011;2203;53.686;9.994;2022-08-04T02:22:38;14.50;;;4.50;;
4377;SDS011;2203;53.686;9.994;2022-08-04T02:25:12;17.83;;;4.10;;
4377;SDS011;2203;53.686;9.994;2022-08-04T02:27:54;11.20;;;4.17;;
4377;SDS011;2203;53.686;9.994;2022-08-04T02:30:27;10.13;;;3.83;;
4377;SDS011;2203;53.686;9.994;2022-08-04T02:33:13;12.50;;;4.60;;
4377;SDS011;2203;53.686;9.994;2022-08-04T02:35:42;27.73;;;4.93;;
4377;SDS011;2203;53.686;9.994;2022-08-04T02:38:11;8.00;;;3.83;;
4377;SDS011;2203;53.686;9.994;2022-08-04T02:40:46;15.10;;;4.17;;
4377;SDS011;2203;53.686;9.994;2022-08-04T02:43:12;15.07;;;4.70;;
4377;SDS011;2203;53.686;9.994;2022-08-04T02:45:40;10.83;;;5.30;;
4377;SDS011;2203;53.686;9.994;2022-08-04T02:48:07;16.70;;;4.03;;
4377;SDS011;2203;53.686;9.994;2022-08-04T02:50:34;12.53;;;3.90;;
4377;SDS011;2203;53.686;9.994;2022-08-04T02:53:02;7.90;;;4.07;;
4377;SDS011;2203;53.686;9.994;2022-08-04T02:55:29;18.17;;;4.47;;
4377;SDS011;2203;53.686;9.994;2022-08-04T02:57:57;8.40;;;3.70;;
4377;SDS011;2203;53.686;9.994;2022-08-04T03:00:23;11.00;;;3.33;;
4377;SDS011;2203;53.686;9.994;2022-08-04T03:05:31;10.63;;;3.47;;
4377;SDS011;2203;53.686;9.994;2022-08-04T03:24:35;8.23;;;3.63;;
4377;SDS011;2203;53.686;9.994;2022-08-04T03:39:30;10.80;;;3.90;;
4377;SDS011;2203;53.686;9.994;2022-08-04T03:42:13;9.27;;;2.93;;
4377;SDS011;2203;53.686;9.994;2022-08-04T03:47:42;13.47;;;3.27;;
4377;SDS011;2203;53.686;9.994;2022-08-04T04:12:31;6.10;;;3.27;;
4377;SDS011;2203;53.686;9.994;2022-08-04T04:15:11;9.00;;;3.23;;
4377;SDS011;2203;53.686;9.994;2022-08-04T04:36:36;14.07;;;2.77;;
4377;SDS011;2203;53.686;9.994;2022-08-04T04:39:31;8.13;;;3.30;;
4377;SDS011;2203;53.686;9.994;2022-08-04T04:50:03;7.37;;;2.80;;
4377;SDS011;2203;53.686;9.994;2022-08-04T04:55:40;8.70;;;3.63;;
4377;SDS011;2203;53.686;9.994;2022-08-04T04:58:10;4.90;;;2.33;;
4377;SDS011;2203;53.686;9.994;2022-08-04T05:00:44;8.83;;;3.20;;
4377;SDS011;2203;53.686;9.994;2022-08-04T05:11:44;8.93;;;2.47;;
4377;SDS011;2203;53.686;9.994;2022-08-04T05:14:17;6.90;;;2.43;;
4377;SDS011;2203;53.686;9.994;2022-08-04T05:16:50;9.57;;;3.20;;
4377;SDS011;2203;53.686;9.994;2022-08-04T05:19:42;5.07;;;2.40;;
4377;SDS011;2203;53.686;9.994;2022-08-04T05:22:17;6.03;;;3.10;;
4377;SDS011;2203;53.686;9.994;2022-08-04T05:24:46;17.07;;;3.00;;
4377;SDS011;2203;53.686;9.994;2022-08-04T05:27:35;4.97;;;2.97;;
4377;SDS011;2203;53.686;9.994;2022-08-04T05:30:01;5.60;;;1.93;;
4377;SDS011;2203;53.686;9.994;2022-08-04T05:32:31;13.40;;;2.73;;
4377;SDS011;2203;53.686;9.994;2022-08-04T05:35:04;9.87;;;2.33;;
4377;SDS011;2203;53.686;9.994;2022-08-04T05:37:33;6.70;;;2.50;;
4377;SDS011;2203;53.686;9.994;2022-08-04T05:40:03;9.83;;;3.03;;
4377;SDS011;2203;53.686;9.994;2022-08-04T05:42:37;22.90;;;3.27;;
4377;SDS011;2203;53.686;9.994;2022-08-04T05:45:04;14.57;;;3.40;;
4377;SDS011;2203;53.686;9.994;2022-08-04T05:47:31;10.73;;;3.03;;
4377;SDS011;2203;53.686;9.994;2022-08-04T05:49:57;14.57;;;3.10;;
4377;SDS011;2203;53.686;9.994;2022-08-04T05:52:25;10.00;;;2.90;;
4377;SDS011;2203;53.686;9.994;2022-08-04T05:54:51;11.87;;;3.60;;
4377;SDS011;2203;53.686;9.994;2022-08-04T05:57:17;8.60;;;3.97;;
4377;SDS011;2203;53.686;9.994;2022-08-04T05:59:43;13.83;;;3.50;;
4377;SDS011;2203;53.686;9.994;2022-08-04T06:02:11;11.90;;;2.93;;
4377;SDS011;2203;53.686;9.994;2022-08-04T06:04:40;17.10;;;3.10;;
4377;SDS011;2203;53.686;9.994;2022-08-04T06:07:06;16.30;;;2.63;;
4377;SDS011;2203;53.686;9.994;2022-08-04T06:09:32;5.70;;;2.50;;
4377;SDS011;2203;53.686;9.994;2022-08-04T06:12:01;9.97;;;2.60;;
4377;SDS011;2203;53.686;9.994;2022-08-04T06:14:41;3.90;;;2.40;;
4377;SDS011;2203;53.686;9.994;2022-08-04T06:17:08;12.20;;;2.40;;
4377;SDS011;2203;53.686;9.994;2022-08-04T06:19:34;9.03;;;3.20;;
4377;SDS011;2203;53.686;9.994;2022-08-04T06:22:01;9.00;;;3.60;;
4377;SDS011;2203;53.686;9.994;2022-08-04T06:24:28;4.60;;;2.93;;
4377;SDS011;2203;53.686;9.994;2022-08-04T06:26:55;9.00;;;2.83;;
4377;SDS011;2203;53.686;9.994;2022-08-04T06:29:21;9.37;;;3.17;;
4377;SDS011;2203;53.686;9.994;2022-08-04T06:31:50;12.77;;;2.87;;
4377;SDS011;2203;53.686;9.994;2022-08-04T06:34:24;13.07;;;3.00;;
4377;SDS011;2203;53.686;9.994;2022-08-04T06:36:50;4.20;;;2.50;;
4377;SDS011;2203;53.686;9.994;2022-08-04T06:39:16;10.10;;;2.70;;
4377;SDS011;2203;53.686;9.994;2022-08-04T06:41:42;11.30;;;2.73;;
4377;SDS011;2203;53.686;9.994;2022-08-04T06:44:09;8.70;;;2.70;;
4377;SDS011;2203;53.686;9.994;2022-08-04T06:46:36;3.73;;;2.53;;
4377;SDS011;2203;53.686;9.994;2022-08-04T06:49:02;9.13;;;2.97;;
4377;SDS011;2203;53.686;9.994;2022-08-04T06:51:28;7.90;;;2.60;;
4377;SDS011;2203;53.686;9.994;2022-08-04T06:53:55;4.23;;;2.60;;
4377;SDS011;2203;53.686;9.994;2022-08-04T06:56:20;15.03;;;2.97;;
4377;SDS011;2203;53.686;9.994;2022-08-04T06:58:48;7.00;;;2.60;;
4377;SDS011;2203;53.686;9.994;2022-08-04T07:01:15;13.40;;;3.60;;
4377;SDS011;2203;53.686;9.994;2022-08-04T07:03:42;15.50;;;3.20;;
4377;SDS011;2203;53.686;9.994;2022-08-04T07:06:07;11.10;;;2.77;;
4377;SDS011;2203;53.686;9.994;2022-08-04T07:08:33;15.43;;;2.70;;
4377;SDS011;2203;53.686;9.994;2022-08-04T07:10:59;11.13;;;3.10;;
4377;SDS011;2203;53.686;9.994;2022-08-04T07:13:26;13.60;;;3.00;;
4377;SDS011;2203;53.686;9.994;2022-08-04T07:15:51;10.83;;;2.80;;
4377;SDS011;2203;53.686;9.994;2022-08-04T07:18:18;8.10;;;2.50;;
4377;SDS011;2203;53.686;9.994;2022-08-04T07:20:44;12.63;;;2.60;;
4377;SDS011;2203;53.686;9.994;2022-08-04T07:23:14;12.37;;;2.80;;
4377;SDS011;2203;53.686;9.994;2022-08-04T07:25:42;14.03;;;3.03;;
4377;SDS011;2203;53.686;9.994;2022-08-04T07:28:07;9.63;;;3.70;;
4377;SDS011;2203;53.686;9.994;2022-08-04T07:30:33;9.47;;;3.63;;
4377;SDS011;2203;53.686;9.994;2022-08-04T07:32:59;6.87;;;2.90;;
4377;SDS011;2203;53.686;9.994;2022-08-04T07:35:26;6.83;;;2.77;;
4377;SDS011;2203;53.686;9.994;2022-08-04T07:37:52;9.10;;;3.13;;
4377;SDS011;2203;53.686;9.994;2022-08-04T07:40:18;9.73;;;3.17;;
4377;SDS011;2203;53.686;9.994;2022-08-04T07:42:43;9.80;;;2.93;;
4377;SDS011;2203;53.686;9.994;2022-08-04T07:45:09;15.03;;;2.97;;
4377;SDS011;2203;53.686;9.994;2022-08-04T07:47:35;9.20;;;2.77;;
4377;SDS011;2203;53.686;9.994;2022-08-04T07:50:01;11.27;;;2.77;;
4377;SDS011;2203;53.686;9.994;2022-08-04T07:52:27;5.03;;;2.40;;
4377;SDS011;2203;53.686;9.994;2022-08-04T07:54:52;17.47;;;3.00;;
4377;SDS011;2203;53.686;9.994;2022-08-04T07:57:18;9.63;;;2.93;;
4377;SDS011;2203;53.686;9.994;2022-08-04T07:59:44;10.43;;;2.80;;
4377;SDS011;2203;53.686;9.994;2022-08-04T08:02:10;10.83;;;3.20;;
4377;SDS011;2203;53.686;9.994;2022-08-04T08:04:38;7.97;;;2.63;;
4377;SDS011;2203;53.686;9.994;2022-08-04T08:07:04;11.40;;;3.40;;
4377;SDS011;2203;53.686;9.994;2022-08-04T08:09:29;10.70;;;2.83;;
4377;SDS011;2203;53.686;9.994;2022-08-04T08:11:57;12.10;;;2.90;;
4377;SDS011;2203;53.686;9.994;2022-08-04T08:14:22;13.80;;;4.03;;
4377;SDS011;2203;53.686;9.994;2022-08-04T08:16:48;12.43;;;3.20;;
4377;SDS011;2203;53.686;9.994;2022-08-04T08:19:14;10.93;;;3.27;;
4377;SDS011;2203;53.686;9.994;2022-08-04T08:21:39;8.70;;;2.57;;
4377;SDS011;2203;53.686;9.994;2022-08-04T08:24:05;5.03;;;2.70;;
4377;SDS011;2203;53.686;9.994;2022-08-04T08:26:31;10.60;;;2.70;;
4377;SDS011;2203;53.686;9.994;2022-08-04T08:28:56;6.23;;;2.87;;
4377;SDS011;2203;53.686;9.994;2022-08-04T08:31:22;14.00;;;3.90;;
4377;SDS011;2203;53.686;9.994;2022-08-04T08:33:48;7.13;;;2.63;;
4377;SDS011;2203;53.686;9.994;2022-08-04T08:36:17;8.77;;;2.80;;
4377;SDS011;2203;53.686;9.994;2022-08-04T08:41:49;21.07;;;3.53;;
4377;SDS011;2203;53.686;9.994;2022-08-04T09:12:44;12.27;;;2.40;;
4377;SDS011;2203;53.686;9.994;2022-08-04T09:15:58;7.90;;;2.60;;
4377;SDS011;2203;53.686;9.994;2022-08-04T09:18:19;6.30;;;2.40;;
4377;SDS011;2203;53.686;9.994;2022-08-04T09:20:48;21.80;;;6.57;;
4377;SDS011;2203;53.686;9.994;2022-08-04T09:23:17;10.07;;;3.70;;
4377;SDS011;2203;53.686;9.994;2022-08-04T09:26:09;8.13;;;2.57;;
4377;SDS011;2203;53.686;9.994;2022-08-04T09:28:53;9.70;;;2.57;;
4377;SDS011;2203;53.686;9.994;2022-08-04T09:31:35;12.30;;;3.30;;
4377;SDS011;2203;53.686;9.994;2022-08-04T09:34:26;19.97;;;2.87;;
4377;SDS011;2203;53.686;9.994;2022-08-04T09:37:08;11.40;;;5.17;;
4377;SDS011;2203;53.686;9.994;2022-08-04T09:39:45;5.63;;;2.60;;
4377;SDS011;2203;53.686;9.994;2022-08-04T09:42:40;4.13;;;2.40;;
4377;SDS011;2203;53.686;9.994;2022-08-04T09:45:15;7.73;;;2.60;;
4377;SDS011;2203;53.686;9.994;2022-08-04T09:47:54;3.07;;;2.30;;
4377;SDS011;2203;53.686;9.994;2022-08-04T09:55:49;6.03;;;2.10;;
4377;SDS011;2203;53.686;9.994;2022-08-04T09:58:27;4.00;;;2.07;;
4377;SDS011;2203;53.686;9.994;2022-08-04T10:01:13;13.20;;;2.63;;
4377;SDS011;2203;53.686;9.994;2022-08-04T10:03:44;1.83;;;1.73;;
4377;SDS011;2203;53.686;9.994;2022-08-04T10:07:02;5.17;;;2.50;;
4377;SDS011;2203;53.686;9.994;2022-08-04T10:15:02;5.20;;;2.30;;
4377;SDS011;2203;53.686;9.994;2022-08-04T10:17:41;6.97;;;3.67;;
4377;SDS011;2203;53.686;9.994;2022-08-04T10:23:14;12.07;;;2.33;;
4377;SDS011;2203;53.686;9.994;2022-08-04T10:26:24;13.53;;;2.17;;
4377;SDS011;2203;53.686;9.994;2022-08-04T10:31:38;5.53;;;2.10;;
4377;SDS011;2203;53.686;9.994;2022-08-04T10:34:12;2.60;;;2.10;;
4377;SDS011;2203;53.686;9.994;2022-08-04T10:36:54;14.73;;;2.67;;
4377;SDS011;2203;53.686;9.994;2022-08-04T10:39:36;6.20;;;2.63;;
4377;SDS011;2203;53.686;9.994;2022-08-04T10:42:19;8.50;;;2.50;;
4377;SDS011;2203;53.686;9.994;2022-08-04T10:45:08;3.90;;;2.20;;
4377;SDS011;2203;53.686;9.994;2022-08-04T10:47:40;5.07;;;2.33;;
4377;SDS011;2203;53.686;9.994;2022-08-04T10:50:09;6.93;;;2.03;;
4377;SDS011;2203;53.686;9.994;2022-08-04T10:52:37;7.20;;;2.33;;
4377;SDS011;2203;53.686;9.994;2022-08-04T10:55:22;10.50;;;2.63;;
4377;SDS011;2203;53.686;9.994;2022-08-04T10:58:19;5.13;;;2.93;;
4377;SDS011;2203;53.686;9.994;2022-08-04T11:00:46;24.00;;;4.73;;
4377;SDS011;2203;53.686;9.994;2022-08-04T11:03:20;5.90;;;2.47;;
4377;SDS011;2203;53.686;9.994;2022-08-04T11:08:22;3.63;;;2.70;;
4377;SDS011;2203;53.686;9.994;2022-08-04T11:10:59;4.87;;;2.53;;
4377;SDS011;2203;53.686;9.994;2022-08-04T11:13:48;6.20;;;2.27;;
4377;SDS011;2203;53.686;9.994;2022-08-04T11:16:23;5.90;;;2.30;;
4377;SDS011;2203;53.686;9.994;2022-08-04T11:21:42;5.17;;;2.30;;
4377;SDS011;2203;53.686;9.994;2022-08-04T11:27:34;3.27;;;1.80;;
4377;SDS011;2203;53.686;9.994;2022-08-04T11:30:05;4.80;;;1.97;;
4377;SDS011;2203;53.686;9.994;2022-08-04T11:35:31;5.47;;;2.50;;
4377;SDS011;2203;53.686;9.994;2022-08-04T11:38:08;3.73;;;2.23;;
4377;SDS011;2203;53.686;9.994;2022-08-04T11:40:42;3.73;;;3.43;;
4377;SDS011;2203;53.686;9.994;2022-08-04T11:43:11;3.10;;;2.33;;
4377;SDS011;2203;53.686;9.994;2022-08-04T11:46:02;2.97;;;2.17;;
4377;SDS011;2203;53.686;9.994;2022-08-04T11:50:54;3.17;;;2.43;;
4377;SDS011;2203;53.686;9.994;2022-08-04T11:53:22;2.70;;;2.20;;
4377;SDS011;2203;53.686;9.994;2022-08-04T11:55:49;10.77;;;2.40;;
4377;SDS011;2203;53.686;9.994;2022-08-04T11:58:17;2.90;;;2.60;;
4377;SDS011;2203;53.686;9.994;2022-08-04T12:00:55;4.97;;;2.60;;
4377;SDS011;2203;53.686;9.994;2022-08-04T12:06:12;3.37;;;2.10;;
4377;SDS011;2203;53.686;9.994;2022-08-04T12:11:53;3.00;;;2.70;;
4377;SDS011;2203;53.686;9.994;2022-08-04T12:15:02;3.07;;;2.27;;
4377;SDS011;2203;53.686;9.994;2022-08-04T12:17:48;4.20;;;2.13;;
4377;SDS011;2203;53.686;9.994;2022-08-04T12:20:18;10.10;;;2.80;;
4377;SDS011;2203;53.686;9.994;2022-08-04T12:22:46;2.53;;;1.73;;
4377;SDS011;2203;53.686;9.994;2022-08-04T12:25:23;4.20;;;1.90;;
4377;SDS011;2203;53.686;9.994;2022-08-04T12:28:13;4.90;;;2.20;;
4377;SDS011;2203;53.686;9.994;2022-08-04T12:30:44;5.47;;;2.10;;
4377;SDS011;2203;53.686;9.994;2022-08-04T12:33:14;5.43;;;2.10;;
4377;SDS011;2203;53.686;9.994;2022-08-04T12:36:11;4.73;;;2.13;;
4377;SDS011;2203;53.686;9.994;2022-08-04T12:38:40;1.83;;;1.47;;
4377;SDS011;2203;53.686;9.994;2022-08-04T12:41:11;11.43;;;1.73;;
4377;SDS011;2203;53.686;9.994;2022-08-04T12:43:40;2.37;;;1.70;;
4377;SDS011;2203;53.686;9.994;2022-08-04T12:46:07;2.50;;;1.60;;
4377;SDS011;2203;53.686;9.994;2022-08-04T12:48:34;2.10;;;1.70;;
4377;SDS011;2203;53.686;9.994;2022-08-04T12:51:01;1.60;;;1.50;;
4377;SDS011;2203;53.686;9.994;2022-08-04T12:53:29;3.83;;;2.00;;
4377;SDS011;2203;53.686;9.994;2022-08-04T12:55:57;2.80;;;1.60;;
4377;SDS011;2203;53.686;9.994;2022-08-04T12:58:24;2.73;;;1.70;;
4377;SDS011;2203;53.686;9.994;2022-08-04T13:00:55;5.63;;;1.77;;
4377;SDS011;2203;53.686;9.994;2022-08-04T13:03:26;6.23;;;2.37;;
4377;SDS011;2203;53.686;9.994;2022-08-04T13:05:53;8.47;;;2.00;;
4377;SDS011;2203;53.686;9.994;2022-08-04T13:08:19;8.47;;;2.47;;
4377;SDS011;2203;53.686;9.994;2022-08-04T13:10:47;4.23;;;1.70;;
4377;SDS011;2203;53.686;9.994;2022-08-04T13:13:16;1.80;;;1.70;;
4377;SDS011;2203;53.686;9.994;2022-08-04T13:15:42;7.83;;;3.50;;
4377;SDS011;2203;53.686;9.994;2022-08-04T13:18:08;4.27;;;2.37;;
4377;SDS011;2203;53.686;9.994;2022-08-04T13:20:37;5.13;;;2.10;;
4377;SDS011;2203;53.686;9.994;2022-08-04T13:23:07;1.80;;;1.70;;
4377;SDS011;2203;53.686;9.994;2022-08-04T13:25:36;3.77;;;2.47;;
4377;SDS011;2203;53.686;9.994;2022-08-04T13:28:07;2.20;;;1.63;;
4377;SDS011;2203;53.686;9.994;2022-08-04T13:30:38;8.73;;;2.40;;
4377;SDS011;2203;53.686;9.994;2022-08-04T13:33:04;4.33;;;2.03;;
4377;SDS011;2203;53.686;9.994;2022-08-04T13:35:30;15.23;;;1.93;;
4377;SDS011;2203;53.686;9.994;2022-08-04T13:37:56;5.03;;;2.47;;
4377;SDS011;2203;53.686;9.994;2022-08-04T13:40:24;8.43;;;6.47;;
4377;SDS011;2203;53.686;9.994;2022-08-04T13:42:50;5.13;;;2.00;;
4377;SDS011;2203;53.686;9.994;2022-08-04T13:45:19;6.53;;;1.90;;
4377;SDS011;2203;53.686;9.994;2022-08-04T13:47:45;3.93;;;1.80;;
4377;SDS011;2203;53.686;9.994;2022-08-04T13:52:43;13.33;;;2.00;;
4377;SDS011;2203;53.686;9.994;2022-08-04T13:57:57;5.60;;;2.00;;
4377;SDS011;2203;53.686;9.994;2022-08-04T14:00:36;17.43;;;2.10;;
4377;SDS011;2203;53.686;9.994;2022-08-04T14:03:06;2.47;;;2.00;;
4377;SDS011;2203;53.686;9.994;2022-08-04T14:05:32;2.20;;;2.00;;
4377;SDS011;2203;53.686;9.994;2022-08-04T14:10:34;3.67;;;3.40;;
4377;SDS011;2203;53.686;9.994;2022-08-04T14:13:00;11.57;;;2.03;;
4377;SDS011;2203;53.686;9.994;2022-08-04T14:15:49;1.77;;;1.67;;
4377;SDS011;2203;53.686;9.994;2022-08-04T14:18:23;8.33;;;2.00;;
4377;SDS011;2203;53.686;9.994;2022-08-04T14:23:44;6.00;;;2.10;;
4377;SDS011;2203;53.686;9.994;2022-08-04T14:26:43;2.20;;;2.00;;
4377;SDS011;2203;53.686;9.994;2022-08-04T14:29:06;7.00;;;2.63;;
4377;SDS011;2203;53.686;9.994;2022-08-04T14:31:33;5.67;;;2.00;;
4377;SDS011;2203;53.686;9.994;2022-08-04T14:33:59;17.60;;;2.80;;
4377;SDS011;2203;53.686;9.994;2022-08-04T14:36:24;6.53;;;2.90;;
4377;SDS011;2203;53.686;9.994;2022-08-04T14:38:54;6.57;;;2.80;;
4377;SDS011;2203;53.686;9.994;2022-08-04T14:41:22;9.07;;;3.03;;
4377;SDS011;2203;53.686;9.994;2022-08-04T14:43:49;13.43;;;3.07;;
4377;SDS011;2203;53.686;9.994;2022-08-04T14:46:16;11.80;;;3.03;;
4377;SDS011;2203;53.686;9.994;2022-08-04T14:48:58;7.00;;;2.40;;
4377;SDS011;2203;53.686;9.994;2022-08-04T14:51:34;12.17;;;2.40;;
4377;SDS011;2203;53.686;9.994;2022-08-04T14:54:01;2.97;;;2.20;;
4377;SDS011;2203;53.686;9.994;2022-08-04T14:56:27;6.40;;;2.60;;
4377;SDS011;2203;53.686;9.994;2022-08-04T14:59:00;5.53;;;2.47;;
4377;SDS011;2203;53.686;9.994;2022-08-04T15:01:28;10.27;;;2.70;;
4377;SDS011;2203;53.686;9.994;2022-08-04T15:03:55;10.20;;;3.60;;
4377;SDS011;2203;53.686;9.994;2022-08-04T15:06:22;5.73;;;3.47;;
4377;SDS011;2203;53.686;9.994;2022-08-04T15:08:50;11.07;;;3.20;;
4377;SDS011;2203;53.686;9.994;2022-08-04T15:11:17;8.77;;;3.50;;
4377;SDS011;2203;53.686;9.994;2022-08-04T15:13:43;9.50;;;3.17;;
4377;SDS011;2203;53.686;9.994;2022-08-04T15:16:09;8.23;;;3.40;;
4377;SDS011;2203;53.686;9.994;2022-08-04T15:18:36;20.13;;;3.67;;
4377;SDS011;2203;53.686;9.994;2022-08-04T15:21:01;19.70;;;4.40;;
4377;SDS011;2203;53.686;9.994;2022-08-04T15:23:27;14.43;;;3.43;;
4377;SDS011;2203;53.686;9.994;2022-08-04T15:25:53;10.03;;;3.43;;
4377;SDS011;2203;53.686;9.994;2022-08-04T15:28:20;12.70;;;3.93;;
4377;SDS011;2203;53.686;9.994;2022-08-04T15:30:47;17.43;;;3.37;;
4377;SDS011;2203;53.686;9.994;2022-08-04T15:33:14;14.83;;;3.00;;
4377;SDS011;2203;53.686;9.994;2022-08-04T15:35:42;18.33;;;4.20;;
4377;SDS011;2203;53.686;9.994;2022-08-04T15:41:02;12.13;;;3.93;;
4377;SDS011;2203;53.686;9.994;2022-08-04T15:46:57;18.27;;;3.83;;
4377;SDS011;2203;53.686;9.994;2022-08-04T15:49:25;16.80;;;4.27;;
4377;SDS011;2203;53.686;9.994;2022-08-04T15:52:03;13.97;;;4.30;;
4377;SDS011;2203;53.686;9.994;2022-08-04T15:54:30;16.93;;;4.23;;
4377;SDS011;2203;53.686;9.994;2022-08-04T15:56:55;16.20;;;4.70;;
4377;SDS011;2203;53.686;9.994;2022-08-04T16:02:29;22.57;;;3.90;;
4377;SDS011;2203;53.686;9.994;2022-08-04T16:07:59;15.67;;;4.63;;
4377;SDS011;2203;53.686;9.994;2022-08-04T16:12:54;18.00;;;4.57;;
4377;SDS011;2203;53.686;9.994;2022-08-04T16:18:05;20.70;;;4.87;;
4377;SDS011;2203;53.686;9.994;2022-08-04T16:20:31;10.80;;;4.30;;
4377;SDS011;2203;53.686;9.994;2022-08-04T16:23:00;18.57;;;6.10;;
4377;SDS011;2203;53.686;9.994;2022-08-04T16:25:42;16.60;;;5.50;;
4377;SDS011;2203;53.686;9.994;2022-08-04T16:31:10;19.30;;;6.93;;
4377;SDS011;2203;53.686;9.994;2022-08-04T16:33:37;23.47;;;6.90;;
4377;SDS011;2203;53.686;9.994;2022-08-04T16:36:04;20.63;;;6.50;;
4377;SDS011;2203;53.686;9.994;2022-08-04T16:41:46;23.43;;;6.80;;
4377;SDS011;2203;53.686;9.994;2022-08-04T16:46:58;23.80;;;7.20;;
4377;SDS011;2203;53.686;9.994;2022-08-04T16:49:25;17.27;;;6.73;;
4377;SDS011;2203;53.686;9.994;2022-08-04T16:51:51;22.93;;;6.77;;
4377;SDS011;2203;53.686;9.994;2022-08-04T16:54:18;19.83;;;7.20;;
4377;SDS011;2203;53.686;9.994;2022-08-04T16:56:43;27.70;;;7.10;;
4377;SDS011;2203;53.686;9.994;2022-08-04T16:59:11;40.10;;;8.40;;
4377;SDS011;2203;53.686;9.994;2022-08-04T17:01:37;17.73;;;7.30;;
4377;SDS011;2203;53.686;9.994;2022-08-04T17:04:10;19.63;;;7.40;;
4377;SDS011;2203;53.686;9.994;2022-08-04T17:06:36;19.07;;;6.63;;
4377;SDS011;2203;53.686;9.994;2022-08-04T17:09:03;28.27;;;6.80;;
4377;SDS011;2203;53.686;9.994;2022-08-04T17:11:30;22.83;;;7.77;;
4377;SDS011;2203;53.686;9.994;2022-08-04T17:13:59;17.57;;;7.57;;
4377;SDS011;2203;53.686;9.994;2022-08-04T17:16:25;22.57;;;7.83;;
4377;SDS011;2203;53.686;9.994;2022-08-04T17:18:53;18.90;;;7.60;;
4377;SDS011;2203;53.686;9.994;2022-08-04T17:21:27;20.47;;;7.93;;
4377;SDS011;2203;53.686;9.994;2022-08-04T17:23:55;17.23;;;8.50;;
4377;SDS011;2203;53.686;9.994;2022-08-04T17:26:32;15.47;;;7.20;;
4377;SDS011;2203;53.686;9.994;2022-08-04T17:28:59;15.10;;;7.27;;
4377;SDS011;2203;53.686;9.994;2022-08-04T17:31:26;17.13;;;7.17;;
4377;SDS011;2203;53.686;9.994;2022-08-04T17:33:53;12.70;;;6.07;;
4377;SDS011;2203;53.686;9.994;2022-08-04T17:36:24;17.47;;;5.90;;
4377;SDS011;2203;53.686;9.994;2022-08-04T17:38:52;18.40;;;7.63;;
4377;SDS011;2203;53.686;9.994;2022-08-04T17:41:20;14.83;;;5.80;;
4377;SDS011;2203;53.686;9.994;2022-08-04T17:46:33;11.93;;;5.00;;
4377;SDS011;2203;53.686;9.994;2022-08-04T17:51:40;12.73;;;5.53;;
4377;SDS011;2203;53.686;9.994;2022-08-04T17:54:20;18.63;;;4.10;;
4377;SDS011;2203;53.686;9.994;2022-08-04T17:56:56;9.60;;;4.13;;
4377;SDS011;2203;53.686;9.994;2022-08-04T17:59:24;16.60;;;4.20;;
4377;SDS011;2203;53.686;9.994;2022-08-04T18:04:29;12.10;;;4.50;;
4377;SDS011;2203;53.686;9.994;2022-08-04T18:06:57;9.63;;;3.53;;
4377;SDS011;2203;53.686;9.994;2022-08-04T18:09:28;9.70;;;3.73;;
4377;SDS011;2203;53.686;9.994;2022-08-04T18:11:58;14.23;;;4.07;;
4377;SDS011;2203;53.686;9.994;2022-08-04T18:14:26;13.87;;;4.07;;
4377;SDS011;2203;53.686;9.994;2022-08-04T18:16:52;8.73;;;3.87;;
4377;SDS011;2203;53.686;9.994;2022-08-04T18:19:18;10.13;;;3.50;;
4377;SDS011;2203;53.686;9.994;2022-08-04T18:21:44;7.60;;;3.43;;
4377;SDS011;2203;53.686;9.994;2022-08-04T18:24:10;11.60;;;3.33;;
4377;SDS011;2203;53.686;9.994;2022-08-04T18:26:37;8.47;;;3.97;;
4377;SDS011;2203;53.686;9.994;2022-08-04T18:29:03;10.33;;;3.60;;
4377;SDS011;2203;53.686;9.994;2022-08-04T18:31:31;8.77;;;3.30;;
4377;SDS011;2203;53.686;9.994;2022-08-04T18:33:57;11.90;;;3.43;;
4377;SDS011;2203;53.686;9.994;2022-08-04T18:36:22;11.60;;;4.73;;
4377;SDS011;2203;53.686;9.994;2022-08-04T18:38:48;9.80;;;3.27;;
4377;SDS011;2203;53.686;9.994;2022-08-04T18:41:13;14.73;;;3.43;;
4377;SDS011;2203;53.686;9.994;2022-08-04T18:43:38;11.50;;;3.60;;
4377;SDS011;2203;53.686;9.994;2022-08-04T18:46:04;8.83;;;3.50;;
4377;SDS011;2203;53.686;9.994;2022-08-04T18:48:29;8.30;;;4.20;;
4377;SDS011;2203;53.686;9.994;2022-08-04T18:50:55;11.97;;;3.63;;
4377;SDS011;2203;53.686;9.994;2022-08-04T18:53:20;12.90;;;4.17;;
4377;SDS011;2203;53.686;9.994;2022-08-04T18:55:46;15.97;;;4.43;;
4377;SDS011;2203;53.686;9.994;2022-08-04T18:58:11;7.67;;;3.40;;
4377;SDS011;2203;53.686;9.994;2022-08-04T19:00:37;8.70;;;3.63;;
4377;SDS011;2203;53.686;9.994;2022-08-04T19:03:03;8.10;;;3.60;;
4377;SDS011;2203;53.686;9.994;2022-08-04T19:05:28;10.50;;;4.60;;
4377;SDS011;2203;53.686;9.994;2022-08-04T19:07:54;13.63;;;4.20;;
4377;SDS011;2203;53.686;9.994;2022-08-04T19:10:19;7.63;;;4.57;;
4377;SDS011;2203;53.686;9.994;2022-08-04T19:12:45;15.67;;;4.10;;
4377;SDS011;2203;53.686;9.994;2022-08-04T19:15:10;15.90;;;4.67;;
4377;SDS011;2203;53.686;9.994;2022-08-04T19:17:36;24.50;;;3.50;;
4377;SDS011;2203;53.686;9.994;2022-08-04T19:20:02;9.07;;;4.07;;
4377;SDS011;2203;53.686;9.994;2022-08-04T19:22:29;11.50;;;4.20;;
4377;SDS011;2203;53.686;9.994;2022-08-04T19:24:54;5.30;;;3.17;;
4377;SDS011;2203;53.686;9.994;2022-08-04T19:27:19;9.57;;;3.40;;
4377;SDS011;2203;53.686;9.994;2022-08-04T19:29:45;6.83;;;3.07;;
4377;SDS011;2203;53.686;9.994;2022-08-04T19:32:10;8.87;;;3.50;;
4377;SDS011;2203;53.686;9.994;2022-08-04T19:34:36;6.87;;;3.23;;
4377;SDS011;2203;53.686;9.994;2022-08-04T19:37:02;10.70;;;3.50;;
4377;SDS011;2203;53.686;9.994;2022-08-04T19:39:27;11.97;;;3.20;;